Time;durP1;ratioP1;P1;durP2;ratioP2;P2;SDS_P1;SDS_P2;PMS_P1;PMS_P2;Temp;Humidity;BMP_temperature;BMP_pressure;BME280_temperature;BME280_humidity;BME280_pressure;Samples;Min_cycle;Max_cycle;Signal;HPM_P1;HPM_P2
2023/05/31 00:00:04;;;;;;;;;;;;;;;20.48;59.21;100101.87;4366768;32;32639;-89
2023/05/31 00:02:33;;;;;;;;;;;;;;;20.54;59.03;100096.03;4355168;32;34181;-90
2023/05/31 00:05:01;;;;;;;;;;;;;;;20.56;59.08;100089.56;4341680;32;33049;-90
2023/05/31 00:07:28;;;;;;;;;;;;;;;20.69;58.97;100101.00;4342511;32;34361;-87
2023/05/31 00:09:56;;;;;;;;;;;;;;;20.40;59.78;100099.78;4357679;32;33943;-86
2023/05/31 00:12:23;;;;;;;;;;;;;;;20.68;58.92;100101.97;4395290;32;33265;-87
2023/05/31 00:14:51;;;;;;;;;;;;;;;20.36;59.51;100098.31;4348005;32;33408;-87
2023/05/31 00:17:18;;;;;;;;;;;;;;;20.21;60.12;100095.88;4346429;32;33030;-87
2023/05/31 00:19:48;;;;;;;;;;;;;;;20.59;58.46;100093.81;4374460;32;33661;-87
2023/05/31 00:22:16;;;;;;;;;;;;;;;20.45;58.99;100092.22;4357321;32;34078;-86
2023/05/31 00:24:45;;;;;;;;;;;;;;;20.40;59.08;100097.09;4347359;32;35255;-87
2023/05/31 00:27:12;;;;;;;;;;;;;;;20.24;59.83;100093.94;4348247;32;33225;-87
2023/05/31 00:29:41;;;;;;;;;;;;;;;20.31;60.00;100085.25;4336693;32;32686;-87
2023/05/31 00:32:09;;;;;;;;;;;;;;;20.46;59.54;100085.88;4357258;32;33556;-87
2023/05/31 00:34:37;;;;;;;;;;;;;;;20.60;55.76;100085.63;4359936;32;33777;-88
2023/05/31 00:37:04;;;;;;;;;;;;;;;20.71;55.16;100085.63;4359727;32;34081;-87
2023/05/31 00:39:32;;;;;;;;;;;;;;;20.45;57.12;100093.06;4359540;32;34015;-91
2023/05/31 00:42:12;;;;;;;;;;;;;;;20.92;50.18;100090.22;4343573;32;33298;-89
2023/05/31 00:44:41;;;;;;;;;;;;;;;20.85;51.78;100092.56;4358797;32;34679;-89
2023/05/31 00:47:09;;;;;;;;;;;;;;;20.95;51.38;100082.78;4350860;32;33060;-88
2023/05/31 00:49:36;;;;;;;;;;;;;;;21.10;48.96;100087.84;4350819;32;32325;-89
2023/05/31 00:52:04;;;;;;;;;;;;;;;20.99;48.15;100083.38;4349611;32;32752;-89
2023/05/31 00:54:32;;;;;;;;;;;;;;;21.14;48.61;100079.41;4365588;32;34511;-89
2023/05/31 00:57:01;;;;;;;;;;;;;;;21.02;49.86;100083.09;4364348;32;33606;-90
2023/05/31 00:59:29;;;;;;;;;;;;;;;21.09;50.20;100080.78;4365671;32;33503;-90
2023/05/31 01:01:58;;;;;;;;;;;;;;;21.11;50.70;100074.28;4367025;32;34169;-90
2023/05/31 01:04:26;;;;;;;;;;;;;;;21.37;50.21;100076.69;4365692;32;33605;-89
2023/05/31 01:06:56;;;;;;;;;;;;;;;21.29;51.12;100071.91;4378243;32;32940;-90
2023/05/31 01:09:23;;;;;;;;;;;;;;;21.17;51.99;100086.34;4378390;32;33789;-89
2023/05/31 01:12:09;;;;;;;;;;;;;;;20.99;52.26;100080.69;4365729;32;32949;-90
2023/05/31 01:14:44;;;;;;;;;;;;;;;21.21;51.79;100075.22;4377210;32;34627;-89
2023/05/31 01:17:14;;;;;;;;;;;;;;;21.07;52.95;100083.56;4367387;32;33180;-90
2023/05/31 01:19:50;;;;;;;;;;;;;;;20.86;53.93;100074.63;4378229;32;33091;-90
2023/05/31 01:22:37;;;;;;;;;;;;;;;21.13;50.66;100077.72;4378317;32;33370;-89
2023/05/31 01:25:17;;;;;;;;;;;;;;;20.83;53.23;100082.91;4378002;32;33062;-90
2023/05/31 01:27:45;;;;;;;;;;;;;;;20.80;53.81;100077.81;4377910;32;33138;-89
2023/05/31 01:30:12;;;;;;;;;;;;;;;20.87;53.44;100076.31;4371840;32;33433;-87
2023/05/31 01:32:40;;;;;;;;;;;;;;;21.18;53.57;100066.59;4367531;32;34868;-88
2023/05/31 01:35:08;;;;;;;;;;;;;;;20.87;54.72;100076.31;4370311;32;34394;-87
2023/05/31 01:37:36;;;;;;;;;;;;;;;20.73;55.02;100072.09;4369546;32;33272;-88
2023/05/31 01:40:05;;;;;;;;;;;;;;;20.78;54.88;100074.41;4354273;32;32506;-88
2023/05/31 01:42:32;;;;;;;;;;;;;;;20.54;51.83;100064.69;4367734;32;32896;-87
2023/05/31 01:45:00;;;;;;;;;;;;;;;20.58;52.00;100070.66;4363100;32;33284;-88
2023/05/31 01:47:27;;;;;;;;;;;;;;;20.64;51.03;100065.62;4366399;32;33894;-88
2023/05/31 01:49:55;;;;;;;;;;;;;;;21.02;46.40;100076.88;4361703;32;33591;-88
2023/05/31 01:52:22;;;;;;;;;;;;;;;20.79;46.11;100070.72;4358511;32;34299;-88
2023/05/31 01:54:50;;;;;;;;;;;;;;;21.26;45.71;100061.41;4357559;32;33439;-88
2023/05/31 01:57:17;;;;;;;;;;;;;;;21.02;46.95;100072.38;4352600;32;33700;-87
2023/05/31 01:59:45;;;;;;;;;;;;;;;21.04;45.07;100062.38;4354306;32;32252;-88
2023/05/31 02:02:13;;;;;;;;;;;;;;;21.29;43.85;100065.69;4356986;32;32837;-88
2023/05/31 02:04:40;;;;;;;;;;;;;;;21.37;43.72;100058.72;4350179;32;34168;-88
2023/05/31 02:07:09;;;;;;;;;;;;;;;21.32;44.89;100062.78;4350341;32;33261;-88
2023/05/31 02:09:36;;;;;;;;;;;;;;;21.45;42.82;100064.28;4362713;32;33627;-88
2023/05/31 02:12:04;;;;;;;;;;;;;;;21.42;44.43;100063.72;4363583;32;34136;-88
2023/05/31 02:14:31;;;;;;;;;;;;;;;21.35;43.93;100059.81;4359223;32;33914;-88
2023/05/31 02:16:59;;;;;;;;;;;;;;;21.47;43.38;100069.53;4366129;32;33618;-88
2023/05/31 02:19:28;;;;;;;;;;;;;;;21.41;42.84;100064.66;4356826;32;33514;-88
2023/05/31 02:21:56;;;;;;;;;;;;;;;21.81;42.48;100077.41;4372907;32;34944;-88
2023/05/31 02:24:28;;;;;;;;;;;;;;;21.58;43.03;100074.00;4367635;32;32811;-87
2023/05/31 02:26:55;;;;;;;;;;;;;;;21.33;43.79;100073.41;4371705;32;33170;-87
2023/05/31 02:29:24;;;;;;;;;;;;;;;21.79;43.26;100071.28;4371369;32;33159;-89
2023/05/31 02:31:52;;;;;;;;;;;;;;;21.66;42.52;100075.06;4367945;32;33786;-89
2023/05/31 02:34:20;;;;;;;;;;;;;;;21.96;42.01;100081.44;4351951;32;33193;-89
2023/05/31 02:36:48;;;;;;;;;;;;;;;21.47;43.66;100074.91;4357921;32;33708;-87
2023/05/31 02:39:16;;;;;;;;;;;;;;;21.78;42.27;100077.66;4370142;32;33378;-88
2023/05/31 02:41:43;;;;;;;;;;;;;;;21.73;42.61;100081.59;4357812;32;32958;-89
2023/05/31 02:44:10;;;;;;;;;;;;;;;21.46;42.59;100086.66;4369271;32;32987;-89
2023/05/31 02:46:39;;;;;;;;;;;;;;;21.65;42.25;100089.47;4358066;32;34051;-88
2023/05/31 02:49:07;;;;;;;;;;;;;;;21.65;42.01;100084.09;4362249;32;32236;-88
2023/05/31 02:51:35;;;;;;;;;;;;;;;21.78;42.10;100091.09;4362245;32;33625;-88
2023/05/31 02:54:03;;;;;;;;;;;;;;;21.55;43.06;100083.16;4365853;32;34034;-88
2023/05/31 02:56:31;;;;;;;;;;;;;;;21.51;42.77;100086.22;4354614;32;33248;-88
2023/05/31 02:59:00;;;;;;;;;;;;;;;21.79;42.08;100087.41;4352864;32;31847;-88
2023/05/31 03:01:28;;;;;;;;;;;;;;;22.01;41.88;100089.97;4370086;32;33813;-89
2023/05/31 03:03:56;;;;;;;;;;;;;;;21.69;42.20;100090.03;4368999;32;34238;-88
2023/05/31 03:06:24;;;;;;;;;;;;;;;21.89;41.70;100085.66;4350905;32;33576;-88
2023/05/31 03:08:52;;;;;;;;;;;;;;;21.92;41.50;100088.06;4369903;32;33077;-89
2023/05/31 03:11:20;;;;;;;;;;;;;;;21.90;41.62;100100.81;4370351;32;33472;-89
2023/05/31 03:13:47;;;;;;;;;;;;;;;21.85;41.51;100094.97;4368033;32;34226;-88
2023/05/31 03:16:16;;;;;;;;;;;;;;;21.87;41.50;100104.59;4370176;32;32812;-88
2023/05/31 03:18:44;;;;;;;;;;;;;;;21.67;41.83;100092.03;4362104;32;33257;-88
2023/05/31 03:21:12;;;;;;;;;;;;;;;21.85;41.29;100095.81;4366880;32;34280;-88
2023/05/31 03:23:40;;;;;;;;;;;;;;;21.73;42.14;100097.72;4369853;32;34081;-88
2023/05/31 03:26:07;;;;;;;;;;;;;;;21.80;41.40;100097.22;4354546;32;34327;-87
2023/05/31 03:28:35;;;;;;;;;;;;;;;21.43;42.28;100103.03;4368884;32;33986;-88
2023/05/31 03:31:03;;;;;;;;;;;;;;;21.29;43.15;100104.13;4356001;32;33287;-87
2023/05/31 03:33:31;;;;;;;;;;;;;;;21.71;42.34;100110.44;4358225;32;33682;-87
2023/05/31 03:35:58;;;;;;;;;;;;;;;21.51;41.68;100113.97;4370779;32;35198;-87
2023/05/31 03:38:26;;;;;;;;;;;;;;;21.45;42.02;100106.41;4370137;32;33864;-87
2023/05/31 03:40:54;;;;;;;;;;;;;;;21.82;42.41;100100.59;4367272;32;33702;-87
2023/05/31 03:43:22;;;;;;;;;;;;;;;21.84;42.38;100104.00;4368753;32;33804;-87
2023/05/31 03:45:50;;;;;;;;;;;;;;;21.92;44.19;100101.50;4370198;32;34383;-87
2023/05/31 03:48:18;;;;;;;;;;;;;;;21.76;44.76;100109.22;4351533;32;32364;-87
2023/05/31 03:50:45;;;;;;;;;;;;;;;22.05;44.79;100110.22;4363412;32;33183;-87
2023/05/31 03:53:13;;;;;;;;;;;;;;;21.95;45.79;100103.94;4373974;32;34981;-88
2023/05/31 03:55:40;;;;;;;;;;;;;;;22.05;46.05;100118.31;4362224;32;33447;-88
2023/05/31 03:58:08;;;;;;;;;;;;;;;22.16;46.55;100115.56;4373390;32;32503;-88
2023/05/31 04:00:36;;;;;;;;;;;;;;;21.56;47.92;100117.12;4359831;32;32762;-87
2023/05/31 04:03:03;;;;;;;;;;;;;;;21.53;48.50;100116.53;4366816;32;34303;-88
2023/05/31 04:05:32;;;;;;;;;;;;;;;21.41;48.55;100135.37;4360449;32;34163;-87
2023/05/31 04:08:01;;;;;;;;;;;;;;;21.85;47.14;100127.25;4362200;32;33374;-88
2023/05/31 04:10:29;;;;;;;;;;;;;;;21.37;44.03;100133.09;4370666;32;33757;-88
2023/05/31 04:12:57;;;;;;;;;;;;;;;21.46;45.45;100143.91;4368984;32;33154;-88
2023/05/31 04:15:24;;;;;;;;;;;;;;;21.53;45.91;100128.13;4360202;32;34143;-88
2023/05/31 04:17:52;;;;;;;;;;;;;;;21.35;47.71;100140.41;4371664;32;34077;-88
2023/05/31 04:20:20;;;;;;;;;;;;;;;21.48;47.34;100125.81;4352662;32;34381;-88
2023/05/31 04:22:47;;;;;;;;;;;;;;;21.43;48.23;100137.94;4364710;32;33525;-89
2023/05/31 04:25:17;;;;;;;;;;;;;;;21.70;47.54;100130.25;4364940;32;33372;-89
2023/05/31 04:27:45;;;;;;;;;;;;;;;22.01;43.05;100133.00;4365876;32;33163;-89
2023/05/31 04:30:13;;;;;;;;;;;;;;;21.82;43.96;100133.72;4378045;32;33816;-89
2023/05/31 04:32:41;;;;;;;;;;;;;;;21.84;42.40;100136.25;4378384;32;34718;-89
2023/05/31 04:35:09;;;;;;;;;;;;;;;21.91;42.33;100130.25;4365636;32;33750;-89
2023/05/31 04:37:37;;;;;;;;;;;;;;;21.98;41.93;100134.12;4365668;32;32168;-89
2023/05/31 04:40:09;;;;;;;;;;;;;;;21.61;42.30;100136.41;4378207;32;33922;-89
2023/05/31 04:42:37;;;;;;;;;;;;;;;21.76;41.95;100138.78;4365460;32;33196;-88
2023/05/31 04:45:06;;;;;;;;;;;;;;;21.82;42.71;100133.72;4364804;32;34430;-88
2023/05/31 04:47:35;;;;;;;;;;;;;;;22.16;41.59;100137.06;4350593;32;33164;-88
2023/05/31 04:50:03;;;;;;;;;;;;;;;22.31;40.91;100136.72;4350484;32;33193;-89
2023/05/31 04:52:31;;;;;;;;;;;;;;;21.92;41.29;100141.84;4375405;32;33004;-89
2023/05/31 04:55:00;;;;;;;;;;;;;;;21.83;41.74;100140.78;4350880;32;34355;-88
2023/05/31 04:57:28;;;;;;;;;;;;;;;21.94;41.24;100142.59;4372714;32;33635;-89
2023/05/31 04:59:59;;;;;;;;;;;;;;;21.87;41.73;100141.38;4346665;32;33350;-89
2023/05/31 05:02:28;;;;;;;;;;;;;;;22.05;41.94;100145.19;4375669;32;34344;-89
2023/05/31 05:04:56;;;;;;;;;;;;;;;22.21;41.75;100150.13;4351464;32;35336;-89
2023/05/31 05:07:24;;;;;;;;;;;;;;;22.49;40.62;100154.78;4351498;32;33388;-89
2023/05/31 05:09:52;;;;;;;;;;;;;;;22.26;41.29;100153.25;4350379;32;32619;-89
2023/05/31 05:12:22;;;;;;;;;;;;;;;22.52;40.19;100153.69;4357267;32;32899;-88
2023/05/31 05:14:49;;;;;;;;;;;;;;;21.54;43.00;100159.37;4352637;32;35172;-88
2023/05/31 05:17:17;;;;;;;;;;;;;;;22.33;41.31;100149.06;4356906;32;33886;-88
2023/05/31 05:19:46;;;;;;;;;;;;;;;22.19;40.85;100146.72;4354293;32;33025;-90
2023/05/31 05:22:13;;;;;;;;;;;;;;;22.27;41.07;100154.12;4367786;32;33702;-88
2023/05/31 05:24:41;;;;;;;;;;;;;;;22.54;40.55;100154.38;4366143;32;33392;-88
2023/05/31 05:27:09;;;;;;;;;;;;;;;22.64;39.31;100152.59;4364150;32;34231;-88
2023/05/31 05:29:36;;;;;;;;;;;;;;;22.52;39.45;100148.31;4367928;32;34946;-88
2023/05/31 05:32:04;;;;;;;;;;;;;;;22.37;41.07;100155.03;4346129;32;32908;-88
2023/05/31 05:34:32;;;;;;;;;;;;;;;22.46;40.87;100154.22;4349482;32;33148;-89
2023/05/31 05:37:00;;;;;;;;;;;;;;;22.56;40.20;100155.13;4362445;32;32309;-88
2023/05/31 05:39:27;;;;;;;;;;;;;;;22.51;40.24;100154.69;4364841;32;33282;-88
2023/05/31 05:41:55;;;;;;;;;;;;;;;22.35;40.78;100162.37;4371885;32;34912;-88
2023/05/31 05:44:22;;;;;;;;;;;;;;;22.62;39.42;100162.66;4360543;32;34524;-87
2023/05/31 05:46:49;;;;;;;;;;;;;;;22.24;40.56;100157.94;4358502;32;32265;-87
2023/05/31 05:49:17;;;;;;;;;;;;;;;22.43;40.69;100159.88;4367521;32;35253;-88
2023/05/31 05:51:46;;;;;;;;;;;;;;;22.71;39.68;100161.84;4368329;32;33545;-88
2023/05/31 05:54:14;;;;;;;;;;;;;;;22.26;40.35;100157.78;4325105;33;34083;-94
2023/05/31 05:57:06;;;;;;;;;;;;;;;22.60;40.36;100159.25;4333614;33;32630;-93
2023/05/31 05:59:57;;;;;;;;;;;;;;;22.78;40.66;100161.28;4340436;32;33959;-94
2023/05/31 06:02:40;;;;;;;;;;;;;;;22.84;39.09;100163.44;4331347;32;33813;-93
2023/05/31 06:05:26;;;;;;;;;;;;;;;22.56;41.02;100163.19;4340181;32;34126;-93
2023/05/31 06:08:13;;;;;;;;;;;;;;;23.20;39.02;100165.53;4333390;32;32883;-93
2023/05/31 06:11:03;;;;;;;;;;;;;;;23.27;39.19;100165.84;4349799;32;32596;-93
2023/05/31 06:13:43;;;;;;;;;;;;;;;23.25;38.14;100165.97;4336918;32;33218;-90
2023/05/31 06:16:38;;;;;;;;;;;;;;;23.63;39.33;100167.00;4364043;32;34127;-91
2023/05/31 06:19:17;;;;;;;;;;;;;;;23.53;39.37;100174.22;4327749;32;33285;-91
2023/05/31 06:22:08;;;;;;;;;;;;;;;23.44;39.60;100172.37;4335719;33;35167;-87
2023/05/31 06:24:37;;;;;;;;;;;;;;;23.62;39.13;100173.38;4338008;33;32865;-91
2023/05/31 06:27:21;;;;;;;;;;;;;;;23.76;38.43;100166.75;4327704;33;33945;-91
2023/05/31 06:30:13;;;;;;;;;;;;;;;24.12;37.49;100178.66;4355312;32;32553;-90
2023/05/31 06:33:03;;;;;;;;;;;;;;;23.61;38.18;100178.94;4348116;32;34029;-91
2023/05/31 06:35:51;;;;;;;;;;;;;;;23.98;38.32;100177.25;4341244;33;33477;-91
2023/05/31 06:38:50;;;;;;;;;;;;;;;23.51;40.24;100184.31;4341408;32;33143;-92
2023/05/31 06:41:34;;;;;;;;;;;;;;;23.63;38.73;100176.94;4355893;32;33045;-91
2023/05/31 06:44:26;;;;;;;;;;;;;;;23.54;39.62;100173.22;4350929;32;33981;-91
2023/05/31 06:47:17;;;;;;;;;;;;;;;23.63;38.90;100169.69;4328693;32;33299;-91
2023/05/31 06:50:00;;;;;;;;;;;;;;;23.72;38.60;100163.47;4324997;33;32996;-92
2023/05/31 06:52:42;;;;;;;;;;;;;;;24.41;39.65;100175.06;4335269;33;32319;-92
2023/05/31 06:55:34;;;;;;;;;;;;;;;24.19;36.56;100168.97;4336509;33;33069;-93
2023/05/31 06:58:32;;;;;;;;;;;;;;;24.13;38.54;100177.66;4374289;32;33770;-91
2023/05/31 07:01:28;;;;;;;;;;;;;;;24.09;38.22;100178.06;4359855;32;34692;-91
2023/05/31 07:04:07;;;;;;;;;;;;;;;24.07;37.69;100180.94;4355433;32;34491;-92
2023/05/31 07:06:58;;;;;;;;;;;;;;;24.13;38.51;100185.75;4312911;33;34042;-91
2023/05/31 07:09:38;;;;;;;;;;;;;;;23.87;38.44;100190.00;4352381;32;33053;-92
2023/05/31 07:12:17;;;;;;;;;;;;;;;24.22;38.07;100182.16;4329713;32;32962;-92
2023/05/31 07:15:09;;;;;;;;;;;;;;;24.29;38.82;100187.81;4308774;33;32383;-91
2023/05/31 07:18:01;;;;;;;;;;;;;;;24.52;38.48;100191.06;4340587;32;32982;-91
2023/05/31 07:20:56;;;;;;;;;;;;;;;24.64;37.97;100195.31;4334553;32;32468;-92
2023/05/31 07:23:47;;;;;;;;;;;;;;;24.99;37.89;100193.72;4336661;33;34292;-92
2023/05/31 07:26:26;;;;;;;;;;;;;;;25.06;36.55;100191.25;4338622;33;32703;-92
2023/05/31 07:29:17;;;;;;;;;;;;;;;24.84;37.04;100195.22;4340264;33;32859;-92
2023/05/31 07:31:57;;;;;;;;;;;;;;;24.72;37.28;100199.94;4353621;32;32863;-92
2023/05/31 07:34:47;;;;;;;;;;;;;;;24.78;38.53;100193.94;4364579;32;33601;-91
2023/05/31 07:37:26;;;;;;;;;;;;;;;24.97;35.64;100195.69;4347778;32;31040;-91
2023/05/31 07:40:17;;;;;;;;;;;;;;;24.51;37.27;100189.37;4351439;32;33102;-91
2023/05/31 07:42:56;;;;;;;;;;;;;;;24.71;37.06;100192.84;4350363;32;33257;-91
2023/05/31 07:45:48;;;;;;;;;;;;;;;24.77;37.05;100201.19;4337449;33;34274;-94
2023/05/31 07:48:28;;;;;;;;;;;;;;;24.56;37.27;100189.78;4365806;32;32281;-93
2023/05/31 07:51:07;;;;;;;;;;;;;;;25.23;35.80;100191.31;4337709;33;34636;-94
2023/05/31 07:53:46;;;;;;;;;;;;;;;25.13;37.74;100190.53;4337332;32;32953;-92
2023/05/31 07:56:37;;;;;;;;;;;;;;;25.22;37.26;100180.69;4352926;32;34221;-92
2023/05/31 07:59:17;;;;;;;;;;;;;;;25.87;38.22;100185.87;4355851;32;32235;-92
2023/05/31 08:02:08;;;;;;;;;;;;;;;25.94;36.84;100181.56;4338421;33;32785;-92
2023/05/31 08:05:09;;;;;;;;;;;;;;;26.04;35.18;100185.03;4366416;32;33732;-91
2023/05/31 08:07:49;;;;;;;;;;;;;;;25.59;35.59;100190.50;4317787;33;32966;-92
2023/05/31 08:10:39;;;;;;;;;;;;;;;26.16;34.22;100183.78;4324314;32;33111;-91
2023/05/31 08:13:07;;;;;;;;;;;;;;;26.14;34.95;100185.78;4339508;32;33049;-91
2023/05/31 08:15:58;;;;;;;;;;;;;;;26.16;34.07;100189.19;4370757;32;33957;-91
2023/05/31 08:18:37;;;;;;;;;;;;;;;26.48;33.65;100187.72;4367140;32;33218;-92
2023/05/31 08:21:17;;;;;;;;;;;;;;;26.11;33.07;100174.41;4328707;33;32417;-92
2023/05/31 08:23:58;;;;;;;;;;;;;;;26.51;33.08;100182.84;4327811;32;33294;-92
2023/05/31 08:26:50;;;;;;;;;;;;;;;26.72;32.94;100174.31;4332468;32;34809;-91
2023/05/31 08:29:33;;;;;;;;;;;;;;;26.99;31.09;100177.81;4332449;33;33360;-92
2023/05/31 08:32:23;;;;;;;;;;;;;;;26.63;32.34;100180.69;4319907;32;32215;-92
2023/05/31 08:35:03;;;;;;;;;;;;;;;26.26;32.85;100180.97;4355150;32;34657;-92
2023/05/31 08:37:55;;;;;;;;;;;;;;;26.27;34.30;100183.50;4347920;33;33082;-92
2023/05/31 08:40:34;;;;;;;;;;;;;;;26.35;33.33;100189.97;4336238;33;34345;-93
2023/05/31 08:43:15;;;;;;;;;;;;;;;26.38;32.67;100192.38;4348464;33;33388;-93
2023/05/31 08:46:07;;;;;;;;;;;;;;;26.74;33.28;100179.59;4350746;32;32448;-93
2023/05/31 08:48:53;;;;;;;;;;;;;;;26.90;33.46;100184.22;4336461;33;32808;-91
2023/05/31 08:51:45;;;;;;;;;;;;;;;26.45;32.63;100188.91;4331307;32;34280;-92
2023/05/31 08:54:25;;;;;;;;;;;;;;;26.56;33.07;100190.47;4331645;33;32252;-92
2023/05/31 08:57:20;;;;;;;;;;;;;;;27.24;31.07;100174.19;4344325;32;32907;-94
2023/05/31 08:59:50;;;;;;;;;;;;;;;27.07;32.16;100186.00;4345001;32;32723;-93
2023/05/31 09:02:41;;;;;;;;;;;;;;;26.15;34.15;100187.47;4348582;32;32774;-93
2023/05/31 09:05:20;;;;;;;;;;;;;;;26.99;31.70;100175.09;4343003;32;33413;-92
2023/05/31 09:08:00;;;;;;;;;;;;;;;26.81;32.89;100178.75;4340878;32;32856;-92
2023/05/31 09:10:40;;;;;;;;;;;;;;;27.29;31.87;100161.00;4354155;32;33105;-91
2023/05/31 09:13:31;;;;;;;;;;;;;;;27.78;32.10;100169.25;4357457;32;34260;-92
2023/05/31 09:16:10;;;;;;;;;;;;;;;27.51;31.46;100161.38;4365401;32;33484;-94
2023/05/31 09:19:05;;;;;;;;;;;;;;;27.63;31.78;100170.03;4339224;32;32849;-94
2023/05/31 09:21:44;;;;;;;;;;;;;;;27.93;32.06;100163.13;4359579;32;34079;-93
2023/05/31 09:24:35;;;;;;;;;;;;;;;27.54;31.46;100170.03;4331826;32;33553;-92
2023/05/31 09:27:14;;;;;;;;;;;;;;;28.16;30.10;100160.56;4318078;33;32249;-95
2023/05/31 09:30:09;;;;;;;;;;;;;;;28.14;32.39;100170.72;4329986;32;33140;-92
2023/05/31 09:32:53;;;;;;;;;;;;;;;28.40;30.64;100155.13;4318734;33;34323;-92
2023/05/31 09:35:55;;;;;;;;;;;;;;;28.44;31.68;100155.59;4347512;32;35061;-92
2023/05/31 09:38:35;;;;;;;;;;;;;;;28.30;29.72;100160.72;4325553;33;32902;-92
2023/05/31 09:41:27;;;;;;;;;;;;;;;28.33;30.63;100157.62;4319121;33;32611;-92
2023/05/31 09:44:07;;;;;;;;;;;;;;;28.33;31.89;100149.47;4327668;33;33363;-92
2023/05/31 09:47:06;;;;;;;;;;;;;;;28.38;30.56;100157.12;4346641;32;33293;-91
2023/05/31 09:49:45;;;;;;;;;;;;;;;28.35;29.36;100157.50;4335029;32;32672;-92
2023/05/31 09:52:40;;;;;;;;;;;;;;;28.35;30.06;100157.50;4356187;32;34016;-91
2023/05/31 09:55:20;;;;;;;;;;;;;;;29.07;29.05;100158.28;4356018;32;33757;-92
2023/05/31 09:58:10;;;;;;;;;;;;;;;28.43;31.37;100154.75;4345817;32;33684;-94
2023/05/31 10:00:50;;;;;;;;;;;;;;;29.11;29.04;100155.22;4313380;33;32634;-92
2023/05/31 10:03:49;;;;;;;;;;;;;;;29.01;30.00;100156.28;4305663;33;32750;-92
2023/05/31 10:06:29;;;;;;;;;;;;;;;28.59;30.55;100148.44;4337450;33;33853;-91
2023/05/31 10:09:20;;;;;;;;;;;;;;;29.42;28.03;100144.28;4357878;32;32937;-91
2023/05/31 10:11:58;;;;;;;;;;;;;;;29.24;30.36;100150.84;4326814;32;32449;-91
2023/05/31 10:14:52;;;;;;;;;;;;;;;28.59;28.76;100148.44;4362762;32;33632;-90
2023/05/31 10:17:38;;;;;;;;;;;;;;;29.03;28.46;100145.22;4341749;32;33485;-91
2023/05/31 10:20:32;;;;;;;;;;;;;;;29.34;28.98;100143.34;4322459;33;33309;-92
2023/05/31 10:23:18;;;;;;;;;;;;;;;29.40;28.64;100138.22;4336298;32;33722;-93
2023/05/31 10:26:08;;;;;;;;;;;;;;;29.14;29.97;100136.66;4346957;32;34361;-92
2023/05/31 10:28:55;;;;;;;;;;;;;;;29.87;29.34;100127.12;4309700;33;33551;-92
2023/05/31 10:31:49;;;;;;;;;;;;;;;29.71;28.81;100139.00;4342970;33;34352;-92
2023/05/31 10:34:28;;;;;;;;;;;;;;;29.73;28.57;100126.06;4330372;32;32947;-93
2023/05/31 10:37:07;;;;;;;;;;;;;;;29.71;28.86;100136.28;4364936;32;32608;-92
2023/05/31 10:39:47;;;;;;;;;;;;;;;29.46;28.30;100140.19;4342014;32;32665;-92
2023/05/31 10:42:33;;;;;;;;;;;;;;;29.52;28.45;100134.84;4350556;32;33582;-92
2023/05/31 10:45:26;;;;;;;;;;;;;;;30.31;27.88;100118.22;4351357;32;32299;-92
2023/05/31 10:48:27;;;;;;;;;;;;;;;30.54;28.64;100118.13;4326555;33;33633;-92
2023/05/31 10:51:07;;;;;;;;;;;;;;;29.69;28.48;100124.75;4369837;32;32928;-93
2023/05/31 10:53:48;;;;;;;;;;;;;;;29.82;29.00;100122.25;4352087;32;33039;-92
2023/05/31 10:56:28;;;;;;;;;;;;;;;30.53;28.51;100121.91;4356673;32;32624;-92
2023/05/31 10:59:16;;;;;;;;;;;;;;;29.28;28.50;100119.56;4368704;32;32876;-93
2023/05/31 11:02:05;;;;;;;;;;;;;;;29.88;28.15;100120.66;4365206;32;33151;-92
2023/05/31 11:04:56;;;;;;;;;;;;;;;30.28;27.53;100119.41;4347537;32;34122;-93
2023/05/31 11:07:40;;;;;;;;;;;;;;;29.77;26.64;100115.66;4329283;33;34154;-94
2023/05/31 11:10:34;;;;;;;;;;;;;;;29.91;27.52;100116.72;4328113;32;34095;-92
2023/05/31 11:13:13;;;;;;;;;;;;;;;30.19;28.79;100112.38;4347472;32;34208;-91
2023/05/31 11:16:04;;;;;;;;;;;;;;;30.19;28.06;100115.09;4338080;32;34911;-93
2023/05/31 11:18:43;;;;;;;;;;;;;;;30.25;27.58;100103.47;4335209;32;32445;-90
2023/05/31 11:21:47;;;;;;;;;;;;;;;30.26;27.56;100102.44;4308324;33;33208;-91
2023/05/31 11:24:33;;;;;;;;;;;;;;;30.28;26.43;100103.06;4357704;32;31050;-91
2023/05/31 11:27:35;;;;;;;;;;;;;;;30.53;26.16;100097.38;4345657;32;33486;-93
2023/05/31 11:30:15;;;;;;;;;;;;;;;30.42;26.38;100087.75;4338558;33;33273;-92
2023/05/31 11:33:18;;;;;;;;;;;;;;;30.45;28.03;100092.00;4359380;32;32956;-90
2023/05/31 11:36:01;;;;;;;;;;;;;;;29.87;28.85;100094.47;4365635;32;34144;-94
2023/05/31 11:38:51;;;;;;;;;;;;;;;29.34;28.04;100098.94;4347202;32;33251;-93
2023/05/31 11:41:31;;;;;;;;;;;;;;;28.65;29.57;100098.81;4338686;32;33181;-94
2023/05/31 11:44:29;;;;;;;;;;;;;;;28.35;30.18;100102.34;4366197;32;34655;-94
2023/05/31 11:47:10;;;;;;;;;;;;;;;28.27;30.43;100101.31;4344338;32;33783;-93
2023/05/31 11:50:01;;;;;;;;;;;;;;;28.33;31.76;100095.16;4352745;32;33623;-94
2023/05/31 11:52:41;;;;;;;;;;;;;;;28.96;29.08;100090.72;4315911;33;33504;-93
2023/05/31 11:55:49;;;;;;;;;;;;;;;28.72;29.19;100094.41;4342512;32;34682;-94
2023/05/31 12:01:38;;;;;;;;;;;;;;;28.89;29.07;100088.84;4352242;32;33240;-92
2023/05/31 12:04:29;;;;;;;;;;;;;;;29.33;26.82;100092.66;4333551;32;32703;-94
2023/05/31 12:07:09;;;;;;;;;;;;;;;28.79;27.68;100084.50;4352421;32;33177;-94
2023/05/31 12:10:00;;;;;;;;;;;;;;;28.95;27.69;100088.16;4371866;32;33145;-94
2023/05/31 12:12:43;;;;;;;;;;;;;;;28.96;28.20;100078.97;4360009;32;33436;-93
2023/05/31 12:15:34;;;;;;;;;;;;;;;29.09;28.57;100073.81;4346897;32;32534;-93
2023/05/31 12:18:02;;;;;;;;;;;;;;;28.74;28.78;100081.47;4338991;33;34278;-93
2023/05/31 12:20:53;;;;;;;;;;;;;;;28.87;29.34;100071.91;4330240;32;33028;-92
2023/05/31 12:23:33;;;;;;;;;;;;;;;29.26;28.60;100075.41;4317556;33;33867;-87
2023/05/31 12:26:01;;;;;;;;;;;;;;;29.94;27.60;100073.63;4311010;33;33387;-91
2023/05/31 12:28:29;;;;;;;;;;;;;;;29.77;27.42;100067.53;4312331;33;33407;-92
2023/05/31 12:31:38;;;;;;;;;;;;;;;29.19;27.68;100068.97;4335366;32;33194;-91
2023/05/31 12:34:25;;;;;;;;;;;;;;;28.90;27.80;100064.22;4348420;32;34428;-93
2023/05/31 12:37:21;;;;;;;;;;;;;;;28.62;28.56;100072.00;4335816;32;32248;-90
2023/05/31 12:40:27;;;;;;;;;;;;;;;28.46;29.04;100067.50;4352489;32;32973;-90
2023/05/31 12:43:01;;;;;;;;;;;;;;;29.13;28.87;100060.72;4339831;32;33199;-90
2023/05/31 12:45:29;;;;;;;;;;;;;;;29.79;27.11;100054.56;4355503;32;34134;-92
2023/05/31 12:48:01;;;;;;;;;;;;;;;29.76;27.83;100054.06;4342633;32;32316;-90
2023/05/31 12:50:30;;;;;;;;;;;;;;;30.06;27.00;100053.09;4336301;32;33029;-91
2023/05/31 12:53:20;;;;;;;;;;;;;;;30.15;26.58;100050.28;4340233;32;32666;-93
2023/05/31 12:56:08;;;;;;;;;;;;;;;30.51;26.52;100048.50;4340517;32;34456;-91
2023/05/31 12:59:02;;;;;;;;;;;;;;;30.52;26.51;100044.72;4351355;32;32827;-91
2023/05/31 13:01:34;;;;;;;;;;;;;;;30.65;24.87;100038.59;4330781;32;33126;-91
2023/05/31 13:04:14;;;;;;;;;;;;;;;30.51;26.30;100042.19;4328754;32;32739;-91
2023/05/31 13:06:57;;;;;;;;;;;;;;;30.55;26.68;100035.34;4344511;32;33987;-91
2023/05/31 13:09:49;;;;;;;;;;;;;;;30.69;25.18;100030.87;4351156;32;32049;-91
2023/05/31 13:12:40;;;;;;;;;;;;;;;30.51;25.11;100023.97;4364608;32;34519;-91
2023/05/31 13:15:30;;;;;;;;;;;;;;;30.61;25.21;100026.38;4351490;32;33300;-91
2023/05/31 13:18:17;;;;;;;;;;;;;;;31.01;23.97;100022.25;4327783;32;33280;-93
2023/05/31 13:21:07;;;;;;;;;;;;;;;30.70;25.21;100014.34;4330209;32;32318;-90
2023/05/31 13:23:37;;;;;;;;;;;;;;;31.00;24.62;100011.53;4324069;32;34417;-90
2023/05/31 13:26:27;;;;;;;;;;;;;;;30.93;24.09;100013.34;4329280;32;33150;-90
2023/05/31 13:29:18;;;;;;;;;;;;;;;30.14;25.06;100015.94;4329940;32;33718;-91
2023/05/31 13:32:09;;;;;;;;;;;;;;;30.48;24.59;100002.56;4333769;32;32145;-91